Time;durP1;ratioP1;P1;durP2;ratioP2;P2;SDS_P1;SDS_P2;PMS_P1;PMS_P2;Temp;Humidity;BMP_temperature;BMP_pressure;BME280_temperature;BME280_humidity;BME280_pressure;Samples;Min_cycle;Max_cycle;Signal;HPM_P1;HPM_P2
2021/06/25 00:01:41;;;;;;;1.30;1.23;;;13.90;99.90;;;;;;4830644;29;20049;-84
2021/06/25 00:04:09;;;;;;;1.33;1.23;;;13.80;99.90;;;;;;4846491;29;20063;-84
2021/06/25 00:06:38;;;;;;;1.40;1.30;;;13.80;99.90;;;;;;4836794;29;20586;-84
2021/06/25 00:09:05;;;;;;;1.05;1.00;;;13.90;99.90;;;;;;4877815;29;20079;-81
2021/06/25 00:11:34;;;;;;;1.40;1.30;;;13.90;99.90;;;;;;4897089;29;20056;-82
2021/06/25 00:14:07;;;;;;;1.13;1.13;;;13.90;99.90;;;;;;4865508;29;20048;-85
2021/06/25 00:16:36;;;;;;;1.50;1.40;;;13.90;99.90;;;;;;4889412;29;20671;-83
2021/06/25 00:19:06;;;;;;;3.88;1.52;;;13.90;99.90;;;;;;4899203;29;20051;-84
2021/06/25 00:21:34;;;;;;;1.95;1.75;;;13.90;99.90;;;;;;4864337;29;20052;-83
2021/06/25 00:24:04;;;;;;;1.45;1.35;;;13.90;99.90;;;;;;4865918;29;20052;-84
2021/06/25 00:26:36;;;;;;;1.27;1.17;;;14.00;99.90;;;;;;4850967;29;20048;-82
2021/06/25 00:29:06;;;;;;;2.47;1.80;;;14.00;99.90;;;;;;4865345;29;20189;-82
2021/06/25 00:31:36;;;;;;;3.83;1.60;;;14.00;99.90;;;;;;4865606;29;20056;-82
2021/06/25 00:34:04;;;;;;;1.40;1.30;;;14.00;99.90;;;;;;4880476;29;20041;-82
2021/06/25 00:36:33;;;;;;;1.50;1.40;;;14.00;99.90;;;;;;4871560;29;20052;-81
2021/06/25 00:39:02;;;;;;;2.35;2.17;;;14.00;99.90;;;;;;4851461;29;20154;-82
2021/06/25 00:41:31;;;;;;;4.55;2.35;;;14.00;99.90;;;;;;4843329;29;20073;-81
2021/06/25 00:44:00;;;;;;;1.55;1.45;;;14.00;99.90;;;;;;4849251;29;20335;-78
2021/06/25 00:46:30;;;;;;;2.10;1.92;;;14.00;99.90;;;;;;4837366;29;20060;-78
2021/06/25 00:48:59;;;;;;;8.13;5.25;;;14.00;99.90;;;;;;4836978;29;20058;-78
2021/06/25 00:51:27;;;;;;;1.42;1.33;;;14.00;99.90;;;;;;4850235;29;20066;-78
2021/06/25 00:53:55;;;;;;;2.17;1.73;;;13.90;99.90;;;;;;4838583;29;20058;-78
2021/06/25 00:56:23;;;;;;;2.00;1.60;;;13.90;99.90;;;;;;4838870;29;20061;-78
2021/06/25 00:58:51;;;;;;;1.42;1.35;;;14.00;99.90;;;;;;4853864;29;20060;-77
2021/06/25 01:01:19;;;;;;;1.65;1.55;;;13.90;99.90;;;;;;4838575;29;20559;-78
2021/06/25 01:03:47;;;;;;;3.28;1.42;;;14.00;99.90;;;;;;4839159;29;20065;-78
2021/06/25 01:06:15;;;;;;;1.58;1.48;;;14.00;99.90;;;;;;4846070;29;20053;-78
2021/06/25 01:08:44;;;;;;;1.33;1.20;;;14.00;99.90;;;;;;4857316;29;20109;-79
2021/06/25 01:11:13;;;;;;;1.85;1.75;;;13.90;99.90;;;;;;4871163;29;20059;-78
2021/06/25 01:13:42;;;;;;;3.63;1.48;;;13.90;99.90;;;;;;4880020;29;20045;-78
2021/06/25 01:16:10;;;;;;;3.63;1.92;;;13.90;99.90;;;;;;4880141;29;20059;-79
2021/06/25 01:18:38;;;;;;;1.80;1.65;;;13.90;99.90;;;;;;4909236;29;20044;-82
2021/06/25 01:21:07;;;;;;;1.67;1.58;;;13.90;99.90;;;;;;4921032;29;20048;-81
2021/06/25 01:23:39;;;;;;;1.80;1.70;;;13.90;99.90;;;;;;4915257;29;20052;-81
2021/06/25 01:26:08;;;;;;;1.60;1.50;;;13.90;99.90;;;;;;4882968;29;20078;-81
2021/06/25 01:28:37;;;;;;;2.45;2.28;;;13.80;99.90;;;;;;4915927;29;20433;-80
2021/06/25 01:31:06;;;;;;;1.58;1.48;;;13.80;99.90;;;;;;4915026;29;20055;-80
2021/06/25 01:33:36;;;;;;;1.40;1.30;;;13.80;99.90;;;;;;4914683;29;20048;-81
2021/06/25 01:36:04;;;;;;;5.88;2.10;;;13.80;99.90;;;;;;4914781;29;20059;-81
2021/06/25 01:38:32;;;;;;;1.05;1.05;;;13.80;99.90;;;;;;4932349;29;20052;-80
2021/06/25 01:41:00;;;;;;;1.55;1.42;;;13.70;99.90;;;;;;4933816;29;20051;-80
2021/06/25 01:43:30;;;;;;;3.55;1.60;;;13.70;99.90;;;;;;4934637;29;20063;-80
2021/06/25 01:45:59;;;;;;;1.17;1.08;;;13.70;99.90;;;;;;4934178;29;20051;-81
2021/06/25 01:48:27;;;;;;;2.35;1.60;;;13.70;99.90;;;;;;4933808;29;20390;-81
2021/06/25 01:50:55;;;;;;;1.50;1.40;;;13.70;99.90;;;;;;4920850;29;20052;-80
2021/06/25 01:53:25;;;;;;;1.45;1.30;;;13.70;99.90;;;;;;4913331;29;20111;-86
2021/06/25 01:56:02;;;;;;;2.53;1.35;;;13.70;99.90;;;;;;4875155;29;20764;-85
2021/06/25 01:58:31;;;;;;;1.67;1.58;;;13.70;99.90;;;;;;4864030;29;20119;-86
2021/06/25 02:01:09;;;;;;;1.13;1.02;;;13.70;99.90;;;;;;4854432;29;20056;-85
2021/06/25 02:03:40;;;;;;;2.45;1.02;;;13.70;99.90;;;;;;4862864;29;20063;-86
2021/06/25 02:06:08;;;;;;;1.20;1.10;;;13.60;99.90;;;;;;4865965;29;20044;-86
2021/06/25 02:09:08;;;;;;;1.17;1.08;;;13.60;99.90;;;;;;4877457;29;20059;-85
2021/06/25 02:12:10;;;;;;;0.88;0.88;;;13.60;99.90;;;;;;4877837;29;20044;-84
2021/06/25 02:14:44;;;;;;;1.27;1.23;;;13.50;99.90;;;;;;4865826;29;20525;-86
2021/06/25 02:17:23;;;;;;;1.92;1.83;;;13.50;99.90;;;;;;4876283;29;20269;-84
2021/06/25 02:19:59;;;;;;;2.03;1.48;;;13.50;99.90;;;;;;4897845;29;20051;-82
2021/06/25 02:23:35;;;;;;;2.40;1.23;;;13.40;99.90;;;;;;4884534;29;20138;-84
2021/06/25 02:26:10;;;;;;;1.30;1.20;;;13.50;99.90;;;;;;4878185;29;20051;-83
2021/06/25 02:28:43;;;;;;;1.58;1.50;;;13.50;99.90;;;;;;4864214;29;20398;-84
2021/06/25 02:31:18;;;;;;;0.90;0.90;;;13.50;99.90;;;;;;4863072;29;20045;-83
2021/06/25 02:33:46;;;;;;;1.75;1.58;;;13.50;99.90;;;;;;4848217;29;20044;-84
2021/06/25 02:36:30;;;;;;;1.25;1.08;;;13.50;99.90;;;;;;4874670;29;20125;-83
2021/06/25 02:38:59;;;;;;;2.85;1.00;;;13.40;99.90;;;;;;4884519;29;20394;-85
2021/06/25 02:41:30;;;;;;;2.40;1.30;;;13.40;99.90;;;;;;4885537;29;20405;-86
2021/06/25 02:43:59;;;;;;;1.00;0.97;;;13.40;99.90;;;;;;4871563;29;20454;-85
2021/06/25 02:46:27;;;;;;;1.08;1.05;;;13.30;99.90;;;;;;4859727;29;20052;-85
2021/06/25 02:49:08;;;;;;;1.08;0.82;;;13.30;99.90;;;;;;4846022;29;20526;-85
2021/06/25 02:51:42;;;;;;;3.30;1.10;;;13.30;99.90;;;;;;4861599;29;20067;-85
2021/06/25 02:54:11;;;;;;;;;;;13.30;99.90;;;;;;4863455;29;20059;-85
2021/06/25 02:56:39;;;;;;;1.40;1.30;;;13.30;99.90;;;;;;4864028;29;20376;-84
2021/06/25 02:59:22;;;;;;;1.25;1.15;;;13.20;99.90;;;;;;4877514;29;20056;-84
2021/06/25 03:01:59;;;;;;;4.30;1.27;;;13.20;99.90;;;;;;4878498;29;20052;-85
2021/06/25 03:04:30;;;;;;;1.15;0.80;;;13.20;99.90;;;;;;4863044;29;20059;-85
2021/06/25 03:07:15;;;;;;;0.85;0.85;;;13.20;99.90;;;;;;4876114;29;20044;-85
2021/06/25 03:09:54;;;;;;;1.00;1.00;;;13.30;99.90;;;;;;4867195;29;20063;-86
2021/06/25 03:19:00;;;;;;;1.00;0.95;;;13.20;99.90;;;;;;4876721;29;20049;-85
2021/06/25 03:28:23;;;;;;;1.02;0.93;;;13.20;99.90;;;;;;4899321;29;20059;-86
2021/06/25 03:35:57;;;;;;;1.25;1.15;;;13.20;99.90;;;;;;4881373;29;20569;-81
2021/06/25 03:38:25;;;;;;;0.85;0.85;;;13.10;99.90;;;;;;4914675;29;20044;-80
2021/06/25 03:40:52;;;;;;;1.60;1.42;;;13.10;99.90;;;;;;4917563;29;20052;-81
2021/06/25 03:43:20;;;;;;;1.08;1.00;;;13.10;99.90;;;;;;4916287;29;20063;-80
2021/06/25 03:45:50;;;;;;;1.60;1.20;;;13.10;99.90;;;;;;4917100;29;20048;-81
2021/06/25 03:48:17;;;;;;;1.35;1.25;;;13.10;99.90;;;;;;4917306;29;20403;-81
2021/06/25 03:50:45;;;;;;;4.82;0.82;;;13.10;99.90;;;;;;4905465;29;20067;-81
2021/06/25 03:53:13;;;;;;;1.20;1.10;;;13.10;99.90;;;;;;4880418;29;20060;-80
2021/06/25 03:58:28;;;;;;;0.95;0.95;;;13.10;99.90;;;;;;4898296;29;20041;-80
2021/06/25 04:00:56;;;;;;;2.05;1.02;;;13.00;99.90;;;;;;4897983;29;20065;-80
2021/06/25 04:03:24;;;;;;;0.70;0.70;;;13.00;99.90;;;;;;4897902;29;20064;-81
2021/06/25 04:05:52;;;;;;;1.23;1.17;;;13.00;99.90;;;;;;4881003;29;20041;-81
2021/06/25 04:08:20;;;;;;;3.03;1.17;;;13.00;99.90;;;;;;4897741;29;20056;-81
2021/06/25 04:10:48;;;;;;;1.17;1.02;;;13.10;99.90;;;;;;4897756;29;20056;-81
2021/06/25 04:13:16;;;;;;;1.05;0.70;;;13.10;99.90;;;;;;4896974;29;20052;-82
2021/06/25 04:15:44;;;;;;;1.10;1.00;;;13.10;99.90;;;;;;4898589;29;20064;-83
2021/06/25 04:18:12;;;;;;;1.00;1.00;;;13.10;99.90;;;;;;4898182;29;20072;-82
2021/06/25 04:20:40;;;;;;;0.80;0.80;;;13.10;99.90;;;;;;4897287;29;20494;-82
2021/06/25 04:23:08;;;;;;;1.20;1.10;;;13.10;99.90;;;;;;4896534;29;20055;-81
2021/06/25 04:25:36;;;;;;;1.10;1.10;;;13.10;99.90;;;;;;4897895;29;20037;-81
2021/06/25 04:28:04;;;;;;;0.80;0.80;;;13.10;99.90;;;;;;4897181;29;20399;-82
2021/06/25 04:30:34;;;;;;;0.73;0.73;;;13.10;99.90;;;;;;4896410;29;20068;-82
2021/06/25 04:33:02;;;;;;;1.10;1.00;;;13.10;99.90;;;;;;4896702;29;20048;-81
2021/06/25 04:35:30;;;;;;;2.15;1.42;;;13.20;99.90;;;;;;4897586;29;20056;-82
2021/06/25 04:38:03;;;;;;;1.45;1.17;;;13.20;99.90;;;;;;4914911;29;20482;-82
2021/06/25 04:40:32;;;;;;;0.93;0.93;;;13.20;99.90;;;;;;4916812;29;20056;-81
2021/06/25 04:43:01;;;;;;;0.80;0.80;;;13.20;99.90;;;;;;4915046;29;20040;-82
2021/06/25 04:45:29;;;;;;;1.15;1.08;;;13.30;99.90;;;;;;4861805;29;20056;-82
2021/06/25 04:47:57;;;;;;;4.57;1.83;;;13.30;99.90;;;;;;4877190;29;20057;-82
2021/06/25 04:50:25;;;;;;;0.80;0.80;;;13.30;99.90;;;;;;4875565;29;20053;-83
2021/06/25 04:52:54;;;;;;;0.82;0.82;;;13.30;99.90;;;;;;4895353;29;20056;-83
2021/06/25 04:55:22;;;;;;;0.98;0.90;;;13.30;99.90;;;;;;4896780;29;20052;-82
2021/06/25 04:57:51;;;;;;;1.77;1.10;;;13.40;99.90;;;;;;4896793;29;20053;-84
2021/06/25 05:00:21;;;;;;;2.90;1.23;;;13.40;99.90;;;;;;4880675;29;20049;-82
2021/06/25 05:02:50;;;;;;;0.90;0.90;;;13.40;99.90;;;;;;4895131;29;20056;-83
2021/06/25 05:05:18;;;;;;;1.00;0.90;;;13.40;99.90;;;;;;4896747;29;20045;-82
2021/06/25 05:07:46;;;;;;;2.10;1.30;;;13.40;99.90;;;;;;4895261;29;20068;-81
2021/06/25 05:10:14;;;;;;;0.82;0.80;;;13.50;99.90;;;;;;4896815;29;20044;-83
2021/06/25 05:12:44;;;;;;;0.98;0.90;;;13.50;99.90;;;;;;4895740;29;20052;-82
2021/06/25 05:15:13;;;;;;;3.40;1.03;;;13.50;99.90;;;;;;4875002;29;20040;-81
2021/06/25 05:17:41;;;;;;;1.20;1.10;;;13.50;99.90;;;;;;4882673;29;20293;-81
2021/06/25 05:20:29;;;;;;;1.45;0.98;;;13.60;99.90;;;;;;4886587;29;20509;-83
2021/06/25 05:22:57;;;;;;;1.15;1.00;;;13.60;99.90;;;;;;4895699;29;20055;-82
2021/06/25 05:25:25;;;;;;;0.73;0.73;;;13.70;99.90;;;;;;4896488;29;20061;-82
2021/06/25 05:27:53;;;;;;;1.10;1.00;;;13.70;99.90;;;;;;4897075;29;20138;-83
2021/06/25 05:30:21;;;;;;;1.60;1.50;;;13.80;99.90;;;;;;4879075;29;20048;-83
2021/06/25 05:32:49;;;;;;;1.52;1.27;;;13.90;99.90;;;;;;4896387;29;20056;-83
2021/06/25 05:35:17;;;;;;;1.10;1.00;;;13.90;99.90;;;;;;4894527;29;20060;-82
2021/06/25 05:37:45;;;;;;;2.08;1.00;;;13.90;99.90;;;;;;4906154;29;20044;-83
2021/06/25 05:40:14;;;;;;;1.15;1.10;;;13.80;99.90;;;;;;4896735;29;20495;-84
2021/06/25 05:42:42;;;;;;;1.20;1.10;;;13.80;99.90;;;;;;4913562;29;20044;-83
2021/06/25 05:45:10;;;;;;;0.75;0.75;;;13.80;99.90;;;;;;4896819;29;20489;-83
2021/06/25 05:47:38;;;;;;;1.20;1.10;;;13.80;99.90;;;;;;4913394;29;20517;-84
2021/06/25 05:50:07;;;;;;;1.10;1.00;;;13.80;99.90;;;;;;4907018;29;20052;-86
2021/06/25 05:52:34;;;;;;;2.83;1.40;;;13.80;99.90;;;;;;4875665;29;20053;-84
2021/06/25 05:55:03;;;;;;;1.13;1.02;;;13.80;99.90;;;;;;4894942;29;20037;-82
2021/06/25 05:57:31;;;;;;;1.33;1.10;;;13.80;99.90;;;;;;4900308;29;20486;-82
2021/06/25 05:59:59;;;;;;;1.00;1.00;;;13.80;99.90;;;;;;4914108;29;20048;-83
2021/06/25 06:02:26;;;;;;;1.38;1.27;;;13.90;99.90;;;;;;4913875;29;20052;-82
2021/06/25 06:04:54;;;;;;;0.90;0.90;;;14.10;99.90;;;;;;4897961;29;20060;-81
2021/06/25 06:07:22;;;;;;;1.42;1.33;;;14.20;99.90;;;;;;4903438;29;20393;-82
2021/06/25 06:09:52;;;;;;;1.13;1.02;;;14.30;99.90;;;;;;4894523;29;20048;-82
2021/06/25 06:12:22;;;;;;;1.25;1.10;;;14.40;99.90;;;;;;4879740;29;20059;-81
2021/06/25 06:14:51;;;;;;;6.43;1.58;;;14.50;99.90;;;;;;4894198;29;20056;-81
2021/06/25 06:17:21;;;;;;;1.25;1.15;;;14.70;99.90;;;;;;4893998;29;20055;-81
2021/06/25 06:19:53;;;;;;;4.32;2.30;;;14.80;99.90;;;;;;4898035;29;20067;-83
2021/06/25 06:38:57;;;;;;;1.88;1.77;;;14.30;99.90;;;;;;4907147;29;20055;-83
2021/06/25 06:41:27;;;;;;;1.38;1.27;;;14.40;99.90;;;;;;4901505;29;20044;-83
2021/06/25 06:43:57;;;;;;;1.38;1.13;;;14.50;99.90;;;;;;4906989;29;20048;-83
2021/06/25 06:46:30;;;;;;;1.42;1.30;;;14.70;99.90;;;;;;4913383;29;20056;-83
2021/06/25 06:49:00;;;;;;;1.58;1.48;;;14.90;99.90;;;;;;4913009;29;20565;-84
2021/06/25 06:51:28;;;;;;;2.38;0.80;;;15.10;99.90;;;;;;4912675;29;20056;-83
2021/06/25 06:53:58;;;;;;;1.92;1.83;;;15.40;99.90;;;;;;4910750;29;20063;-86
2021/06/25 06:56:32;;;;;;;3.22;1.02;;;15.50;99.90;;;;;;4901720;29;20052;-83
2021/06/25 06:59:02;;;;;;;1.27;0.90;;;15.70;99.90;;;;;;4885306;29;20051;-83
2021/06/25 07:01:36;;;;;;;2.08;1.88;;;15.60;99.90;;;;;;4871924;29;20047;-84
2021/06/25 07:04:23;;;;;;;1.17;1.08;;;15.50;99.90;;;;;;4896982;29;20055;-85
2021/06/25 07:06:55;;;;;;;2.90;1.42;;;15.50;99.90;;;;;;4916786;29;20048;-85
2021/06/25 07:09:29;;;;;;;1.30;1.20;;;15.60;99.90;;;;;;4900438;29;20074;-85
2021/06/25 07:11:57;;;;;;;1.30;1.20;;;15.70;99.90;;;;;;4917663;29;20060;-85
2021/06/25 07:14:25;;;;;;;1.17;1.08;;;15.80;99.90;;;;;;4900359;29;20086;-85
2021/06/25 07:16:58;;;;;;;1.65;1.20;;;15.90;99.90;;;;;;4914149;29;20549;-85
2021/06/25 07:19:35;;;;;;;2.65;1.20;;;16.10;99.90;;;;;;4908494;29;20498;-85
2021/06/25 07:22:04;;;;;;;3.33;1.60;;;16.30;99.90;;;;;;4883267;29;20048;-84
2021/06/25 07:24:32;;;;;;;1.42;1.33;;;16.40;99.90;;;;;;4917520;29;20052;-84
2021/06/25 07:26:59;;;;;;;1.25;1.13;;;16.80;99.90;;;;;;4917119;29;20040;-84
2021/06/25 07:29:27;;;;;;;1.45;1.02;;;17.00;99.90;;;;;;4916068;29;20044;-84
2021/06/25 07:31:56;;;;;;;1.50;1.30;;;17.50;99.90;;;;;;4912430;29;20490;-87
2021/06/25 07:34:29;;;;;;;1.33;1.17;;;17.10;99.90;;;;;;4896958;29;20059;-86
2021/06/25 07:36:57;;;;;;;1.65;1.08;;;16.50;99.90;;;;;;4894572;29;20048;-84
2021/06/25 07:39:25;;;;;;;1.30;1.20;;;16.50;99.90;;;;;;4900597;29;20052;-84
2021/06/25 07:41:53;;;;;;;1.00;0.90;;;16.60;99.90;;;;;;4899575;29;20051;-85
2021/06/25 07:44:21;;;;;;;1.65;1.10;;;16.70;99.90;;;;;;4900553;29;20071;-85
2021/06/25 07:46:50;;;;;;;2.78;1.42;;;16.80;99.90;;;;;;4883726;29;20051;-85
2021/06/25 07:49:17;;;;;;;6.82;1.30;;;16.80;99.90;;;;;;4915901;29;20070;-85
2021/06/25 07:51:46;;;;;;;1.52;1.30;;;17.00;99.90;;;;;;4916506;29;20052;-86
2021/06/25 07:54:15;;;;;;;1.52;1.13;;;17.00;99.90;;;;;;4916053;29;20036;-86
2021/06/25 07:56:44;;;;;;;1.40;1.30;;;16.70;99.90;;;;;;4898094;29;20068;-85
2021/06/25 07:59:12;;;;;;;1.48;1.13;;;16.70;99.90;;;;;;4899381;29;20044;-85
2021/06/25 08:01:40;;;;;;;1.80;1.60;;;16.90;99.90;;;;;;4913439;29;20048;-86
2021/06/25 08:04:10;;;;;;;1.20;1.10;;;17.00;99.90;;;;;;4916667;29;20609;-85
2021/06/25 08:06:39;;;;;;;1.48;1.38;;;17.00;99.90;;;;;;4898326;29;20075;-86
2021/06/25 08:09:07;;;;;;;2.70;1.02;;;16.90;99.90;;;;;;4899295;29;20060;-84
2021/06/25 08:11:36;;;;;;;1.38;1.17;;;17.00;99.90;;;;;;4911581;29;20048;-85
2021/06/25 08:14:07;;;;;;;1.65;1.55;;;17.10;99.90;;;;;;4898341;29;20393;-86
2021/06/25 08:16:37;;;;;;;2.65;1.33;;;16.90;99.90;;;;;;4911207;29;20052;-85
2021/06/25 08:19:07;;;;;;;4.68;1.63;;;16.80;99.90;;;;;;4915596;29;20036;-85
2021/06/25 08:21:35;;;;;;;1.45;1.33;;;16.90;99.90;;;;;;4914524;29;20059;-85
2021/06/25 08:24:05;;;;;;;1.77;1.67;;;17.00;99.90;;;;;;4915758;29;20059;-85
2021/06/25 08:26:32;;;;;;;1.85;1.60;;;17.00;99.90;;;;;;4899172;29;20040;-85
2021/06/25 08:29:01;;;;;;;2.05;1.90;;;17.10;99.90;;;;;;4899028;29;20129;-85
2021/06/25 08:31:29;;;;;;;3.53;1.83;;;17.10;99.90;;;;;;4915968;29;20052;-84
2021/06/25 08:33:58;;;;;;;2.03;1.50;;;17.10;99.90;;;;;;4913722;29;20044;-84
2021/06/25 08:36:28;;;;;;;2.80;2.47;;;16.80;99.90;;;;;;4914080;29;20056;-85
2021/06/25 08:38:56;;;;;;;2.25;1.80;;;16.70;99.90;;;;;;4905409;29;20052;-84
2021/06/25 08:41:24;;;;;;;6.68;3.83;;;16.90;99.90;;;;;;4914730;29;20048;-85
2021/06/25 08:43:53;;;;;;;1.70;1.60;;;17.20;99.90;;;;;;4897720;29;20048;-84
2021/06/25 08:46:24;;;;;;;2.05;1.55;;;17.50;99.90;;;;;;4882439;29;20059;-87
2021/06/25 08:48:53;;;;;;;;;;;17.70;99.90;;;;;;4916322;29;20052;-83
2021/06/25 08:51:22;;;;;;;1.90;1.77;;;17.50;99.90;;;;;;4915130;29;19931;-85
2021/06/25 08:53:50;;;;;;;2.83;1.38;;;17.30;99.90;;;;;;4897222;29;20050;-85
2021/06/25 08:56:19;;;;;;;2.45;2.00;;;17.20;99.90;;;;;;4910536;29;20056;-85
2021/06/25 08:58:47;;;;;;;1.88;1.63;;;17.00;99.90;;;;;;4898508;29;20486;-86
2021/06/25 09:01:17;;;;;;;2.13;2.00;;;17.00;99.90;;;;;;4914646;29;20044;-85
2021/06/25 09:03:52;;;;;;;2.33;2.13;;;17.10;99.90;;;;;;4897483;29;20067;-85
2021/06/25 09:06:20;;;;;;;1.92;1.83;;;17.30;99.90;;;;;;4910422;29;20414;-84
2021/06/25 09:08:48;;;;;;;2.22;2.05;;;17.60;99.90;;;;;;4897189;29;20044;-85
2021/06/25 09:11:25;;;;;;;2.60;2.40;;;17.70;99.90;;;;;;4888843;29;20059;-85
2021/06/25 09:14:03;;;;;;;2.17;1.63;;;17.60;99.90;;;;;;4913774;29;20036;-85
2021/06/25 09:16:38;;;;;;;1.10;1.00;;;17.50;99.90;;;;;;4913516;29;20052;-85
2021/06/25 09:19:17;;;;;;;9.52;2.03;;;17.60;99.90;;;;;;4910120;29;20067;-84
2021/06/25 09:22:00;;;;;;;1.38;1.27;;;17.90;99.90;;;;;;4910433;29;20051;-84
2021/06/25 09:24:28;;;;;;;2.22;1.67;;;17.80;99.90;;;;;;4912703;29;20056;-85
2021/06/25 09:27:05;;;;;;;1.60;1.50;;;17.70;99.90;;;;;;4914255;29;20052;-85
2021/06/25 09:29:39;;;;;;;2.05;1.48;;;17.80;99.90;;;;;;4913211;29;20037;-85
2021/06/25 09:32:09;;;;;;;0.95;0.70;;;17.80;99.90;;;;;;4914178;29;20055;-85
2021/06/25 09:34:46;;;;;;;0.83;0.83;;;17.80;99.90;;;;;;4914157;29;20055;-85
2021/06/25 09:37:16;;;;;;;1.25;1.23;;;17.90;99.90;;;;;;4913528;29;20280;-84
2021/06/25 09:40:08;;;;;;;0.83;0.83;;;17.70;99.90;;;;;;4914142;29;20075;-84
2021/06/25 09:42:36;;;;;;;1.00;0.90;;;17.70;99.90;;;;;;4914110;29;20051;-84
2021/06/25 09:45:05;;;;;;;0.57;0.55;;;17.80;99.90;;;;;;4914173;29;20126;-84
2021/06/25 09:47:38;;;;;;;2.45;0.93;;;18.00;99.90;;;;;;4914231;29;20056;-85
2021/06/25 09:50:16;;;;;;;0.75;0.75;;;17.80;99.90;;;;;;4913207;29;20040;-84
2021/06/25 09:52:51;;;;;;;1.13;0.90;;;17.50;99.90;;;;;;4908041;29;20051;-83
2021/06/25 09:55:24;;;;;;;1.65;0.90;;;17.50;99.90;;;;;;4891259;29;20059;-82
2021/06/25 10:01:21;;;;;;;1.35;1.25;;;18.00;99.90;;;;;;4879775;29;20040;-81
2021/06/25 10:04:00;;;;;;;0.88;0.85;;;17.90;99.90;;;;;;4897428;29;20048;-85
2021/06/25 10:06:30;;;;;;;0.98;0.98;;;17.80;99.90;;;;;;4894295;29;20040;-83
2021/06/25 10:08:59;;;;;;;2.90;1.00;;;17.70;99.90;;;;;;4877509;29;20052;-86
2021/06/25 10:11:29;;;;;;;0.68;0.65;;;17.70;99.90;;;;;;4880892;29;20056;-86
2021/06/25 10:14:03;;;;;;;0.60;0.60;;;17.70;99.90;;;;;;4879217;29;20043;-86
2021/06/25 10:16:31;;;;;;;1.10;0.95;;;17.70;99.90;;;;;;4896953;29;20063;-82
2021/06/25 10:18:59;;;;;;;6.22;1.30;;;17.70;99.90;;;;;;4913840;29;20056;-85
2021/06/25 10:21:33;;;;;;;0.50;0.50;;;17.80;99.90;;;;;;4879598;29;20059;-87
2021/06/25 10:24:03;;;;;;;0.70;0.70;;;17.80;99.90;;;;;;4893227;29;20048;-86
2021/06/25 10:26:32;;;;;;;0.75;0.70;;;17.80;99.90;;;;;;4896875;29;20064;-87
2021/06/25 10:29:03;;;;;;;1.48;1.38;;;17.80;99.90;;;;;;4873377;29;20053;-86
2021/06/25 10:31:33;;;;;;;1.48;0.95;;;17.70;99.90;;;;;;4881214;29;20055;-84
2021/06/25 10:34:02;;;;;;;0.70;0.70;;;17.70;99.90;;;;;;4881132;29;20040;-87
2021/06/25 10:36:35;;;;;;;1.58;1.48;;;18.10;99.90;;;;;;4896362;29;20044;-85
2021/06/25 10:39:05;;;;;;;2.47;1.00;;;18.40;99.90;;;;;;4878454;29;20382;-83
2021/06/25 10:41:47;;;;;;;2.38;1.33;;;18.20;99.90;;;;;;4893473;29;20384;-84
2021/06/25 10:44:30;;;;;;;;;;;18.10;99.90;;;;;;4911833;29;20052;-82
2021/06/25 10:47:17;;;;;;;2.67;1.30;;;18.00;99.90;;;;;;4895794;29;20297;-84
2021/06/25 10:50:13;;;;;;;1.38;1.25;;;17.90;99.90;;;;;;4894370;29;20051;-86
2021/06/25 10:53:06;;;;;;;1.30;1.20;;;17.90;99.90;;;;;;4880221;29;20071;-85
2021/06/25 10:55:44;;;;;;;1.63;1.48;;;17.90;99.90;;;;;;4896871;29;20048;-81
2021/06/25 10:58:20;;;;;;;0.82;0.82;;;17.90;99.90;;;;;;4881357;29;20048;-83
2021/06/25 11:00:54;;;;;;;2.15;1.67;;;18.00;99.90;;;;;;4896206;29;20044;-82
2021/06/25 11:03:33;;;;;;;1.10;1.00;;;18.00;99.90;;;;;;4899912;29;20517;-85
2021/06/25 11:06:01;;;;;;;1.33;1.17;;;18.10;99.90;;;;;;4908101;29;20044;-85
2021/06/25 11:08:29;;;;;;;1.13;0.88;;;18.30;99.90;;;;;;4886519;29;20056;-84
2021/06/25 11:10:58;;;;;;;1.00;1.00;;;18.40;99.90;;;;;;4896565;29;20063;-84
2021/06/25 11:13:28;;;;;;;0.70;0.70;;;18.60;99.90;;;;;;4896043;29;20048;-85
2021/06/25 11:15:59;;;;;;;3.25;1.08;;;18.90;99.90;;;;;;4914067;29;20064;-80
2021/06/25 11:18:28;;;;;;;;;;;19.30;99.90;;;;;;4895554;29;20394;-82
2021/06/25 11:21:08;;;;;;;0.80;0.80;;;19.50;99.90;;;;;;4897219;29;19923;-83
2021/06/25 11:23:39;;;;;;;0.73;0.73;;;19.10;99.90;;;;;;4896993;29;20063;-80
2021/06/25 11:26:13;;;;;;;0.50;0.50;;;19.20;99.90;;;;;;4881541;29;20055;-80
2021/06/25 11:28:42;;;;;;;2.47;0.70;;;19.40;99.90;;;;;;4895391;29;20040;-79
2021/06/25 11:31:19;;;;;;;0.63;0.63;;;19.30;99.90;;;;;;4897928;29;20048;-79
2021/06/25 11:33:51;;;;;;;0.57;0.57;;;19.20;99.90;;;;;;4869458;29;20407;-81
2021/06/25 11:36:39;;;;;;;0.60;0.60;;;19.30;99.90;;;;;;4880564;29;20048;-82
2021/06/25 11:39:26;;;;;;;0.70;0.70;;;19.50;99.90;;;;;;4910373;29;20055;-82
2021/06/25 11:42:00;;;;;;;0.73;0.73;;;19.50;99.90;;;;;;4899852;29;20044;-85
2021/06/25 11:44:35;;;;;;;1.40;0.80;;;19.20;99.90;;;;;;4884922;29;20059;-84
2021/06/25 11:47:13;;;;;;;0.95;0.80;;;18.90;99.90;;;;;;4883169;29;20511;-80
2021/06/25 11:50:15;;;;;;;0.57;0.57;;;18.70;99.90;;;;;;4895238;29;20043;-85
2021/06/25 11:52:42;;;;;;;0.77;0.77;;;18.70;99.90;;;;;;4898909;29;20386;-84
2021/06/25 11:55:12;;;;;;;1.25;1.17;;;18.70;99.90;;;;;;4896371;29;20051;-83
2021/06/25 11:57:41;;;;;;;1.17;1.10;;;19.00;99.90;;;;;;4892592;29;20048;-85
2021/06/25 12:00:16;;;;;;;1.10;1.00;;;19.20;99.90;;;;;;4881728;29;20308;-79
2021/06/25 12:03:05;;;;;;;1.65;1.10;;;19.40;99.90;;;;;;4896128;29;20051;-81
2021/06/25 12:05:35;;;;;;;2.45;1.08;;;19.30;99.90;;;;;;4898892;29;20048;-83
2021/06/25 12:08:10;;;;;;;1.30;1.20;;;19.20;99.90;;;;;;4899998;29;20059;-85
2021/06/25 12:10:52;;;;;;;1.35;0.90;;;19.10;99.90;;;;;;4875005;29;20056;-83
2021/06/25 12:13:20;;;;;;;1.17;0.90;;;19.00;99.90;;;;;;4883702;29;20067;-87
2021/06/25 12:15:50;;;;;;;0.50;0.50;;;18.90;99.90;;;;;;4883494;29;20059;-86
2021/06/25 12:18:23;;;;;;;1.58;0.90;;;18.90;99.90;;;;;;4880901;29;20040;-86
2021/06/25 12:21:12;;;;;;;1.73;0.73;;;18.70;99.90;;;;;;4897786;29;20048;-86
2021/06/25 12:23:41;;;;;;;3.20;0.85;;;18.60;99.90;;;;;;4879339;29;20055;-88
2021/06/25 12:26:17;;;;;;;0.80;0.80;;;18.50;99.90;;;;;;4883406;29;20050;-84
2021/06/25 12:28:50;;;;;;;1.70;1.13;;;18.50;99.90;;;;;;4896440;29;20055;-87
2021/06/25 12:31:34;;;;;;;0.93;0.80;;;18.60;99.90;;;;;;4884152;29;20064;-86
2021/06/25 12:34:13;;;;;;;0.88;0.88;;;18.50;99.90;;;;;;4881347;29;20048;-84
2021/06/25 12:36:59;;;;;;;0.90;0.90;;;18.70;99.90;;;;;;4892106;29;20048;-87
2021/06/25 12:39:28;;;;;;;0.75;0.75;;;18.80;99.90;;;;;;4896711;29;20052;-87
2021/06/25 12:42:00;;;;;;;0.75;0.75;;;19.00;99.90;;;;;;4898912;29;20052;-87
2021/06/25 12:44:28;;;;;;;1.00;1.00;;;19.20;99.90;;;;;;4882249;29;20059;-86
2021/06/25 12:47:05;;;;;;;0.90;0.68;;;19.40;99.90;;;;;;4898879;29;20048;-87
2021/06/25 12:49:37;;;;;;;1.13;1.02;;;19.60;99.90;;;;;;4881703;29;20048;-88
2021/06/25 12:52:22;;;;;;;0.93;0.70;;;19.80;99.90;;;;;;4897334;29;20056;-84
2021/06/25 12:54:57;;;;;;;0.82;0.65;;;19.80;99.90;;;;;;4879720;29;20044;-84
2021/06/25 12:57:31;;;;;;;0.77;0.70;;;19.70;99.90;;;;;;4882221;29;20048;-85
2021/06/25 13:00:01;;;;;;;0.93;0.82;;;19.70;99.90;;;;;;4881212;29;20481;-82
2021/06/25 13:02:29;;;;;;;0.80;0.80;;;19.70;99.90;;;;;;4897957;29;20044;-82
2021/06/25 13:04:58;;;;;;;0.73;0.73;;;19.60;99.90;;;;;;4893412;29;20037;-83
2021/06/25 13:07:26;;;;;;;1.13;1.00;;;19.50;99.90;;;;;;4898395;29;20044;-84
2021/06/25 13:09:57;;;;;;;0.90;0.90;;;19.50;99.90;;;;;;4914451;29;20388;-83
2021/06/25 13:12:34;;;;;;;0.75;0.75;;;19.60;99.90;;;;;;4898848;29;20071;-84
2021/06/25 13:15:06;;;;;;;0.55;0.55;;;19.70;99.90;;;;;;4895138;29;20051;-84
2021/06/25 13:17:36;;;;;;;0.70;0.70;;;19.90;99.90;;;;;;4877241;29;20549;-84
2021/06/25 13:20:20;;;;;;;1.05;0.80;;;20.00;99.90;;;;;;4882142;29;20048;-83
2021/06/25 13:23:06;;;;;;;0.77;0.77;;;19.80;99.90;;;;;;4825193;29;20054;-83
2021/06/25 13:25:36;;;;;;;0.77;0.77;;;19.60;99.90;;;;;;4855565;29;20412;-83
2021/06/25 13:28:05;;;;;;;1.27;1.17;;;19.60;99.90;;;;;;4841521;29;20492;-82
2021/06/25 13:30:35;;;;;;;0.63;0.63;;;19.60;99.90;;;;;;4855644;29;20049;-84
2021/06/25 13:33:14;;;;;;;0.70;0.70;;;19.60;99.90;;;;;;4840462;29;20042;-83
2021/06/25 13:35:44;;;;;;;0.70;0.70;;;19.90;99.90;;;;;;4854873;29;20049;-83
2021/06/25 13:38:20;;;;;;;0.73;0.73;;;20.00;99.90;;;;;;4855431;29;21503;-83
2021/06/25 13:40:58;;;;;;;3.00;1.50;;;20.00;99.90;;;;;;4837682;29;20547;-84
2021/06/25 13:43:28;;;;;;;1.25;1.05;;;20.30;99.90;;;;;;4837181;29;20058;-84
2021/06/25 13:46:18;;;;;;;0.93;0.93;;;20.50;99.90;;;;;;4855743;29;20056;-86
2021/06/25 13:49:04;;;;;;;0.60;0.60;;;20.10;99.90;;;;;;4839128;29;20046;-84
2021/06/25 13:51:33;;;;;;;0.75;0.75;;;19.80;99.90;;;;;;4839229;29;20412;-86
2021/06/25 13:54:19;;;;;;;8.27;4.63;;;19.60;99.90;;;;;;4878598;29;20513;-86